createdAt,value
2015-04-02T00:00:02.796Z,17.6
2015-04-02T00:00:21.281Z,17.6
2015-04-02T00:00:39.875Z,17.5
2015-04-02T00:00:58.362Z,17.4
2015-04-02T00:01:17.018Z,17.5
2015-04-02T00:01:35.487Z,17.6
2015-04-02T00:01:53.990Z,17.4
2015-04-02T00:02:12.474Z,17.4
2015-04-02T00:02:31.240Z,17.5
2015-04-02T00:02:49.631Z,17.6
2015-04-02T00:03:08.320Z,17.3
2015-04-02T00:03:26.711Z,17.3
2015-04-02T00:03:45.164Z,17.3
2015-04-02T00:04:03.619Z,17.3
2015-04-02T00:04:22.056Z,17.4
2015-04-02T00:04:40.447Z,17.5
2015-04-02T00:04:59.150Z,17.5
2015-04-02T00:05:17.716Z,17.5
2015-04-02T00:05:36.122Z,17.5
2015-04-02T00:05:54.903Z,17.6
2015-04-02T00:06:13.483Z,17.6
2015-04-02T00:06:32.030Z,17.6
2015-04-02T00:06:50.483Z,17.6
2015-04-02T00:07:09.061Z,17.7
2015-04-02T00:07:27.471Z,17.7
2015-04-02T00:07:45.861Z,17.8
2015-04-02T00:08:04.393Z,17.8
2015-04-02T00:08:22.896Z,17.6
2015-04-02T00:08:41.396Z,17.6
2015-04-02T00:08:59.911Z,17.6
2015-04-02T00:09:18.349Z,17.7
2015-04-02T00:09:36.757Z,17.8
2015-04-02T00:09:55.210Z,17.8
2015-04-02T00:10:13.585Z,17.8
2015-04-02T00:10:32.040Z,17.7
2015-04-02T00:10:50.478Z,17.6
2015-04-02T00:11:09.009Z,17.7
2015-04-02T00:11:27.493Z,17.8
2015-04-02T00:11:46.137Z,17.8
2015-04-02T00:12:04.528Z,17.8
2015-04-02T00:12:23.121Z,17.7
2015-04-02T00:12:41.499Z,17.7
2015-04-02T00:13:00.140Z,17.6
2015-04-02T00:13:18.921Z,17.6
2015-04-02T00:13:37.624Z,17.5
2015-04-02T00:13:56.111Z,17.5
2015-04-02T00:14:14.658Z,17.6
2015-04-02T00:14:33.501Z,17.7
2015-04-02T00:14:51.941Z,17.6
2015-04-02T00:15:10.425Z,17.5
2015-04-02T00:15:28.816Z,17.5
2015-04-02T00:15:47.206Z,17.6
2015-04-02T00:16:05.756Z,17.6
2015-04-02T00:16:24.350Z,17.6
2015-04-02T00:16:42.772Z,17.7
2015-04-02T00:17:01.196Z,17.6
2015-04-02T00:17:19.602Z,17.7
2015-04-02T00:17:38.024Z,17.7
2015-04-02T00:17:56.555Z,17.5
2015-04-02T00:18:15.167Z,17.5
2015-04-02T00:18:33.604Z,17.6
2015-04-02T00:18:52.073Z,17.7
2015-04-02T00:19:10.467Z,17.7
2015-04-02T00:19:28.858Z,17.8
2015-04-02T00:19:47.249Z,17.8
2015-04-02T00:20:05.671Z,17.7
2015-04-02T00:20:24.063Z,17.7
2015-04-02T00:20:42.548Z,17.8
2015-04-02T00:21:00.954Z,17.7
2015-04-02T00:21:19.347Z,17.7
2015-04-02T00:21:37.879Z,17.6
2015-04-02T00:21:56.285Z,17.5
2015-04-02T00:22:14.676Z,17.6
2015-04-02T00:22:33.114Z,17.6
2015-04-02T00:22:51.614Z,17.7
2015-04-02T00:23:10.005Z,17.7
2015-04-02T00:23:28.414Z,17.7
2015-04-02T00:23:46.930Z,17.4
2015-04-02T00:24:05.320Z,17.4
2015-04-02T00:24:23.711Z,17.5
2015-04-02T00:24:42.228Z,17.5
2015-04-02T00:25:00.650Z,17.3
2015-04-02T00:25:19.135Z,17.3
2015-04-02T00:25:37.591Z,17.3
2015-04-02T00:25:56.200Z,17.2
2015-04-02T00:26:14.591Z,17.3
2015-04-02T00:26:32.981Z,17.4
2015-04-02T00:26:51.405Z,17.4
2015-04-02T00:27:09.780Z,17.4
2015-04-02T00:27:28.233Z,17.5
2015-04-02T00:27:46.783Z,17.5
2015-04-02T00:28:05.268Z,17.5
2015-04-02T00:28:23.690Z,17.5
2015-04-02T00:28:42.205Z,17.4
2015-04-02T00:29:00.646Z,17.5
2015-04-02T00:29:19.036Z,17.5
2015-04-02T00:29:37.411Z,17.5
2015-04-02T00:29:55.899Z,17.5
2015-04-02T00:30:14.289Z,17.6
2015-04-02T00:30:32.836Z,17.4
2015-04-02T00:30:51.242Z,17.5
2015-04-02T00:31:09.697Z,17.4
2015-04-02T00:31:28.275Z,17.3
2015-04-02T00:31:46.775Z,17.3
2015-04-02T00:32:05.154Z,17.2
2015-04-02T00:32:23.607Z,17.1
2015-04-02T00:32:41.997Z,17.2
2015-04-02T00:33:00.404Z,17
2015-04-02T00:33:18.795Z,17.1
2015-04-02T00:33:37.295Z,17.2
2015-04-02T00:33:55.733Z,17.2
2015-04-02T00:34:14.220Z,17.2
2015-04-02T00:34:32.861Z,17.1
2015-04-02T00:34:51.251Z,17.1
2015-04-02T00:35:09.798Z,17.1
2015-04-02T00:35:28.192Z,17.2
2015-04-02T00:35:46.692Z,17.3
2015-04-02T00:36:05.223Z,17.4
2015-04-02T00:36:23.600Z,17.4
2015-04-02T00:36:42.038Z,17.5
2015-04-02T00:37:00.428Z,17.5
2015-04-02T00:37:18.803Z,17.3
2015-04-02T00:37:37.352Z,17.4
2015-04-02T00:37:55.805Z,17.4
2015-04-02T00:38:14.321Z,17.5
2015-04-02T00:38:32.715Z,17.5
2015-04-02T00:38:51.105Z,17.4
2015-04-02T00:39:09.605Z,17.3
2015-04-02T00:39:27.996Z,17.3
2015-04-02T00:39:46.467Z,17.4
2015-04-02T00:40:04.857Z,17.4
2015-04-02T00:40:23.263Z,17.5
2015-04-02T00:40:41.657Z,17.4
2015-04-02T00:41:00.048Z,17.3
2015-04-02T00:41:18.454Z,17.3
2015-04-02T00:41:36.860Z,17.4
2015-04-02T00:41:55.254Z,17.5
2015-04-02T00:42:13.926Z,17.4
2015-04-02T00:42:32.316Z,17.4
2015-04-02T00:42:50.803Z,17.3
2015-04-02T00:43:09.193Z,17.4
2015-04-02T00:43:27.615Z,17.4
2015-04-02T00:43:45.990Z,17.3
2015-04-02T00:44:04.414Z,17.4
2015-04-02T00:44:22.805Z,17.5
2015-04-02T00:44:41.195Z,17.5
2015-04-02T00:44:59.839Z,17.6
2015-04-02T00:45:18.339Z,17.5
2015-04-02T00:45:36.839Z,17.3
2015-04-02T00:45:55.433Z,17.3
2015-04-02T00:46:13.826Z,17.1
2015-04-02T00:46:32.217Z,17.2
2015-04-02T00:46:50.686Z,17.2
2015-04-02T00:47:09.250Z,17.3
2015-04-02T00:47:27.656Z,17.3
2015-04-02T00:47:46.235Z,17.4
2015-04-02T00:48:04.703Z,17.5
2015-04-02T00:48:23.097Z,17.3
2015-04-02T00:48:41.488Z,17.3
2015-04-02T00:48:59.894Z,17.3
2015-04-02T00:49:18.349Z,17.3
2015-04-02T00:49:36.786Z,17.3
2015-04-02T00:49:55.224Z,17.3
2015-04-02T00:50:13.865Z,17.4
2015-04-02T00:50:32.288Z,17.5
2015-04-02T00:50:50.851Z,17.3
2015-04-02T00:51:09.335Z,17.4
2015-04-02T00:51:27.948Z,17.4
2015-04-02T00:51:46.354Z,17.3
2015-04-02T00:52:08.588Z,17.3
2015-04-02T00:52:27.213Z,17.4
2015-04-02T00:52:45.748Z,17.4
2015-04-02T00:53:04.310Z,17.4
2015-04-02T00:53:22.779Z,17.3
2015-04-02T00:53:41.264Z,17.4
2015-04-02T00:53:59.764Z,17.5
2015-04-02T00:54:18.280Z,17.5
2015-04-02T00:54:37.064Z,17.4
2015-04-02T00:54:55.470Z,17.4
2015-04-02T00:55:14.048Z,17.4
2015-04-02T00:55:32.798Z,17.5
2015-04-02T00:55:51.505Z,17.5
2015-04-02T00:56:09.973Z,17.5
2015-04-02T00:56:28.489Z,17.6
2015-04-02T00:56:46.897Z,17.7
2015-04-02T00:57:05.475Z,17.7
2015-04-02T00:57:24.100Z,17.7
2015-04-02T00:57:42.600Z,17.7
2015-04-02T00:58:01.213Z,17.7
2015-04-02T00:58:19.666Z,17.6
2015-04-02T00:58:38.088Z,17.5
2015-04-02T00:58:56.668Z,17.6
2015-04-02T00:59:15.152Z,17.6
2015-04-02T00:59:33.996Z,17.4
2015-04-02T00:59:52.496Z,17.3
2015-04-02T01:00:10.920Z,17.3
2015-04-02T01:00:29.420Z,17.4
2015-04-02T01:00:47.935Z,17.4
2015-04-02T01:01:06.329Z,17.2
2015-04-02T01:01:24.735Z,17.2
2015-04-02T01:01:43.345Z,17.3
2015-04-02T01:02:01.829Z,17.4
2015-04-02T01:02:20.254Z,17.4
2015-04-02T01:02:38.723Z,17.3
2015-04-02T01:02:57.441Z,17.4
2015-04-02T01:03:16.037Z,17.4
2015-04-02T01:03:34.490Z,17.5
2015-04-02T01:03:52.912Z,17.5
2015-04-02T01:04:11.693Z,17.5
2015-04-02T01:04:30.086Z,17.3
2015-04-02T01:04:48.664Z,17.5
2015-04-02T01:05:07.086Z,17.6
2015-04-02T01:05:25.573Z,17.6
2015-04-02T01:05:44.245Z,17.7
2015-04-02T01:06:02.652Z,17.7
2015-04-02T01:06:21.027Z,17.8
2015-04-02T01:06:39.450Z,17.8
2015-04-02T01:06:58.091Z,17.8
2015-04-02T01:07:16.482Z,17.8
2015-04-02T01:07:35.078Z,17.9
2015-04-02T01:07:53.516Z,17.8
2015-04-02T01:08:12.328Z,17.6
2015-04-02T01:08:30.797Z,17.7
2015-04-02T01:08:49.190Z,17.8
2015-04-02T01:09:07.690Z,17.8
2015-04-02T01:09:26.409Z,17.8
2015-04-02T01:09:44.958Z,17.9
2015-04-02T01:10:03.443Z,17.9
2015-04-02T01:10:22.130Z,17.7
2015-04-02T01:10:40.927Z,17.7
2015-04-02T01:10:59.351Z,17.5
2015-04-02T01:11:18.007Z,17.4
2015-04-02T01:11:36.585Z,17.4
2015-04-02T01:11:55.057Z,17.5
2015-04-02T01:12:13.776Z,17.5
2015-04-02T01:12:32.338Z,17.5
2015-04-02T01:12:51.026Z,17.6
2015-04-02T01:13:09.465Z,17.4
2015-04-02T01:13:27.872Z,17.3
2015-04-02T01:13:46.247Z,17.4
2015-04-02T01:14:04.750Z,17.2
2015-04-02T01:14:23.172Z,17.4
2015-04-02T01:14:41.703Z,17.5
2015-04-02T01:15:00.140Z,17.5
2015-04-02T01:15:18.518Z,17.4
2015-04-02T01:15:37.034Z,17.4
2015-04-02T01:15:55.440Z,17.3
2015-04-02T01:16:13.957Z,17.4
2015-04-02T01:16:32.457Z,17.5
2015-04-02T01:16:50.910Z,17.5
2015-04-02T01:17:09.488Z,17.6
2015-04-02T01:17:27.897Z,17.6
2015-04-02T01:17:46.444Z,17.6
2015-04-02T01:18:04.850Z,17.6
2015-04-02T01:18:23.306Z,17.6
2015-04-02T01:18:41.727Z,17.5
2015-04-02T01:18:59.509Z,17.5
2015-04-02T01:19:18.102Z,17.5
2015-04-02T01:19:36.527Z,17.5
2015-04-02T01:19:54.918Z,17.6
2015-04-02T01:20:13.309Z,17.5
2015-04-02T01:20:31.812Z,17.6
2015-04-02T01:20:50.390Z,17.7
2015-04-02T01:21:08.796Z,17.6
2015-04-02T01:21:27.280Z,17.6
2015-04-02T01:21:45.017Z,17.6
2015-04-02T01:22:03.423Z,17.7
2015-04-02T01:22:21.892Z,17.7
2015-04-02T01:22:40.347Z,17.7
2015-04-02T01:22:58.737Z,17.7
2015-04-02T01:23:17.206Z,17.7
2015-04-02T01:23:35.628Z,17.7
2015-04-02T01:23:54.194Z,17.7
2015-04-02T01:24:12.756Z,17.7
2015-04-02T01:24:31.256Z,17.7
2015-04-02T01:24:49.650Z,17.6
2015-04-02T01:25:08.040Z,17.7
2015-04-02T01:25:26.587Z,17.7
2015-04-02T01:25:45.025Z,17.8
2015-04-02T01:26:03.449Z,17.7
2015-04-02T01:26:21.917Z,17.7
2015-04-02T01:26:40.355Z,17.8
2015-04-02T01:26:58.888Z,17.6
2015-04-02T01:27:17.357Z,17.5
2015-04-02T01:27:35.794Z,17.3
2015-04-02T01:27:54.201Z,17.3
2015-04-02T01:28:12.579Z,17.3
2015-04-02T01:28:31.000Z,17.3
2015-04-02T01:28:49.594Z,17.4
2015-04-02T01:29:08.222Z,17.5
2015-04-02T01:29:26.644Z,17.6
2015-04-02T01:29:45.066Z,17.6
2015-04-02T01:30:03.644Z,17.6
2015-04-02T01:30:22.177Z,17.6
2015-04-02T01:30:40.709Z,17.6
2015-04-02T01:30:59.146Z,17.7
2015-04-02T01:31:17.804Z,17.7
2015-04-02T01:31:36.195Z,17.8
2015-04-02T01:31:54.586Z,17.8
2015-04-02T01:32:13.195Z,17.8
2015-04-02T01:32:31.807Z,17.8
2015-04-02T01:32:50.323Z,17.8
2015-04-02T01:33:08.807Z,17.8
2015-04-02T01:33:27.200Z,17.8
2015-04-02T01:33:45.684Z,17.8
2015-04-02T01:34:04.106Z,17.7
2015-04-02T01:34:22.684Z,17.8
2015-04-02T01:34:41.094Z,17.8
2015-04-02T01:34:59.531Z,17.8
2015-04-02T01:35:18.047Z,17.8
2015-04-02T01:35:36.472Z,17.6
2015-04-02T01:35:54.893Z,17.7
2015-04-02T01:36:13.503Z,17.8
2015-04-02T01:36:31.909Z,17.8
2015-04-02T01:36:50.474Z,17.9
2015-04-02T01:37:09.895Z,18
2015-04-02T01:37:28.239Z,18
2015-04-02T01:37:46.664Z,18
2015-04-02T01:38:05.055Z,18.1
2015-04-02T01:38:23.523Z,18.1
2015-04-02T01:38:42.195Z,18
2015-04-02T01:39:00.697Z,18
2015-04-02T01:39:19.088Z,18
2015-04-02T01:39:37.697Z,18.1
2015-04-02T01:39:56.090Z,18.1
2015-04-02T01:40:14.496Z,18.1
2015-04-02T01:40:32.918Z,18.1
2015-04-02T01:40:51.418Z,18.2
2015-04-02T01:41:09.812Z,18.1
2015-04-02T01:41:28.359Z,18.1
2015-04-02T01:41:46.765Z,18.2
2015-04-02T01:42:05.269Z,18.2
2015-04-02T01:42:23.863Z,18.2
2015-04-02T01:42:42.253Z,18.1
2015-04-02T01:43:00.628Z,18.1
2015-04-02T01:43:19.035Z,18.1
2015-04-02T01:43:37.660Z,17.9
2015-04-02T01:43:56.050Z,17.9
2015-04-02T01:44:14.457Z,18
2015-04-02T01:44:32.848Z,17.9
2015-04-02T01:44:51.348Z,18
2015-04-02T01:45:09.723Z,18.1
2015-04-02T01:45:28.161Z,18.1
2015-04-02T01:45:46.536Z,18.1
2015-04-02T01:46:05.145Z,18.1
2015-04-02T01:46:23.536Z,18.1
2015-04-02T01:46:42.458Z,18.1
2015-04-02T01:47:00.848Z,18.2
2015-04-02T01:47:19.255Z,18.2
2015-04-02T01:47:37.751Z,18.2
2015-04-02T01:47:56.142Z,18.2
2015-04-02T01:48:14.673Z,18.2
2015-04-02T01:48:32.415Z,18.2
2015-04-02T01:48:50.790Z,18.2
2015-04-02T01:49:09.181Z,18.3
2015-04-02T01:49:27.962Z,18.3
2015-04-02T01:49:46.375Z,18.2
2015-04-02T01:50:04.766Z,18.2
2015-04-02T01:50:23.266Z,18.2
2015-04-02T01:50:42.024Z,18.1
2015-04-02T01:51:00.555Z,18
2015-04-02T01:51:19.008Z,18
2015-04-02T01:51:37.446Z,18.1
2015-04-02T01:51:55.890Z,18.2
2015-04-02T01:52:14.375Z,18.2
2015-04-02T01:52:32.953Z,18.2
2015-04-02T01:52:51.380Z,18.2
2015-04-02T01:53:09.864Z,18.1
2015-04-02T01:53:28.364Z,18.1
2015-04-02T01:53:46.958Z,18
2015-04-02T01:54:05.415Z,18.1
2015-04-02T01:54:23.806Z,18.1
2015-04-02T01:54:42.290Z,18
2015-04-02T01:55:00.841Z,17.8
2015-04-02T01:55:19.232Z,17.9
2015-04-02T01:55:37.716Z,17.9
2015-04-02T01:55:56.138Z,18
2015-04-02T01:56:14.564Z,18
2015-04-02T01:56:33.048Z,18
2015-04-02T01:56:51.564Z,17.9
2015-04-02T01:57:09.958Z,17.9
2015-04-02T01:57:28.380Z,18
2015-04-02T01:57:46.771Z,17.8
2015-04-02T01:58:05.146Z,17.9
2015-04-02T01:58:23.618Z,18
2015-04-02T01:58:42.227Z,18
2015-04-02T01:59:00.618Z,18.1
2015-04-02T01:59:19.012Z,18.1
2015-04-02T01:59:37.465Z,18.2
2015-04-02T01:59:56.043Z,18.2
2015-04-02T02:00:14.418Z,18.3
2015-04-02T02:00:32.812Z,18.2
2015-04-02T02:00:51.250Z,18
2015-04-02T02:01:09.640Z,18.1
2015-04-02T02:01:28.034Z,18.1
2015-04-02T02:01:46.534Z,18
2015-04-02T02:02:04.924Z,18
2015-04-02T02:02:23.315Z,18
2015-04-02T02:02:41.694Z,18
2015-04-02T02:03:00.147Z,18
2015-04-02T02:03:18.538Z,18
2015-04-02T02:03:36.915Z,18
2015-04-02T02:03:55.321Z,18
2015-04-02T02:04:13.727Z,18
2015-04-02T02:04:32.134Z,17.9
2015-04-02T02:04:50.526Z,17.9
2015-04-02T02:05:08.917Z,18
2015-04-02T02:05:27.354Z,18.1
2015-04-02T02:05:45.748Z,18
2015-04-02T02:06:04.139Z,17.9
2015-04-02T02:06:22.607Z,17.7
2015-04-02T02:06:41.123Z,17.6
2015-04-02T02:06:59.516Z,17.7
2015-04-02T02:07:17.953Z,17.6
2015-04-02T02:07:36.547Z,17.8
2015-04-02T02:07:54.956Z,17.9
2015-04-02T02:08:13.378Z,17.8
2015-04-02T02:08:31.894Z,17.7
2015-04-02T02:08:50.284Z,17.8
2015-04-02T02:09:08.708Z,17.8
2015-04-02T02:09:27.099Z,17.9
2015-04-02T02:09:45.521Z,17.9
2015-04-02T02:10:03.914Z,18
2015-04-02T02:10:22.477Z,18
2015-04-02T02:10:41.024Z,17.7
2015-04-02T02:10:59.445Z,17.6
2015-04-02T02:11:17.838Z,17.5
2015-04-02T02:11:36.229Z,17.5
2015-04-02T02:11:54.682Z,17.5
2015-04-02T02:12:13.060Z,17.6
2015-04-02T02:12:31.450Z,17.6
2015-04-02T02:12:50.013Z,17.5
2015-04-02T02:13:08.388Z,17.6
2015-04-02T02:13:26.890Z,17.6
2015-04-02T02:13:45.281Z,17.7
2015-04-02T02:14:03.906Z,17.7
2015-04-02T02:14:22.346Z,17.7
2015-04-02T02:14:40.752Z,17.6
2015-04-02T02:14:59.221Z,17.7
2015-04-02T02:15:17.596Z,17.8
2015-04-02T02:15:36.021Z,17.8
2015-04-02T02:15:54.427Z,17.7
2015-04-02T02:16:12.849Z,17.8
2015-04-02T02:16:31.382Z,17.8
2015-04-02T02:16:49.976Z,17.8
2015-04-02T02:17:08.351Z,17.9
2015-04-02T02:17:26.757Z,17.7
2015-04-02T02:17:45.228Z,17.7
2015-04-02T02:18:03.744Z,17.8
2015-04-02T02:18:22.150Z,17.7
2015-04-02T02:18:40.527Z,17.7
2015-04-02T02:18:58.918Z,17.7
2015-04-02T02:19:17.293Z,17.6
2015-04-02T02:19:35.808Z,17.7
2015-04-02T02:19:54.342Z,17.8
2015-04-02T02:20:12.749Z,17.8
2015-04-02T02:20:31.421Z,17.7
2015-04-02T02:20:49.799Z,17.7
2015-04-02T02:21:08.189Z,17.8
2015-04-02T02:21:26.580Z,17.7
2015-04-02T02:21:44.986Z,17.7
2015-04-02T02:22:03.379Z,17.6
2015-04-02T02:22:21.957Z,17.6
2015-04-02T02:22:40.363Z,17.6
2015-04-02T02:22:58.959Z,17.7
2015-04-02T02:23:17.349Z,17.6
2015-04-02T02:23:35.787Z,17.5
2015-04-02T02:23:54.287Z,17.4
2015-04-02T02:24:12.790Z,17.4
2015-04-02T02:24:31.431Z,17.5
2015-04-02T02:24:49.946Z,17.4
2015-04-02T02:25:08.387Z,17.3
2015-04-02T02:25:26.777Z,17.1
2015-04-02T02:25:45.184Z,17.2
2015-04-02T02:26:03.590Z,17.2
2015-04-02T02:26:21.981Z,17.3
2015-04-02T02:26:40.481Z,17.3
2015-04-02T02:26:58.856Z,17.4
2015-04-02T02:27:17.267Z,17.2
2015-04-02T02:27:35.751Z,17.2
2015-04-02T02:27:54.157Z,17.3
2015-04-02T02:28:12.548Z,17.4
2015-04-02T02:28:31.097Z,17.2
2015-04-02T02:28:49.487Z,17.4
2015-04-02T02:29:08.019Z,17.4
2015-04-02T02:29:26.583Z,17.4
2015-04-02T02:29:45.005Z,17.4
2015-04-02T02:30:03.552Z,17.4
2015-04-02T02:30:21.927Z,17.4
2015-04-02T02:30:40.321Z,17.5
2015-04-02T02:30:58.992Z,17.6
2015-04-02T02:31:17.430Z,17.7
2015-04-02T02:31:35.979Z,17.7
2015-04-02T02:31:54.651Z,17.7
2015-04-02T02:32:13.057Z,17.6
2015-04-02T02:32:31.448Z,17.6
2015-04-02T02:32:49.826Z,17.6
2015-04-02T02:33:08.216Z,17.6
2015-04-02T02:33:26.826Z,17.5
2015-04-02T02:33:45.296Z,17.6
2015-04-02T02:34:03.921Z,17.5
2015-04-02T02:34:22.499Z,17.5
2015-04-02T02:34:41.031Z,17.6
2015-04-02T02:34:59.424Z,17.6
2015-04-02T02:35:17.815Z,17.6
2015-04-02T02:35:36.252Z,17.5
2015-04-02T02:35:54.709Z,17.5
2015-04-02T02:36:13.099Z,17.5
2015-04-02T02:36:31.568Z,17.5
2015-04-02T02:36:50.099Z,17.6
2015-04-02T02:37:08.554Z,17.7
2015-04-02T02:37:27.289Z,17.7
2015-04-02T02:37:45.664Z,17.7
2015-04-02T02:38:04.150Z,17.6
2015-04-02T02:38:22.728Z,17.5
2015-04-02T02:38:41.103Z,17.6
2015-04-02T02:38:59.728Z,17.5
2015-04-02T02:39:18.606Z,17.5
2015-04-02T02:39:37.309Z,17.4
2015-04-02T02:39:55.716Z,17.3
2015-04-02T02:40:14.422Z,17.3
2015-04-02T02:40:32.812Z,17.2
2015-04-02T02:40:51.265Z,17.3
2015-04-02T02:41:09.672Z,17.3
2015-04-02T02:41:28.205Z,17.4
2015-04-02T02:41:46.627Z,17.5
2015-04-02T02:42:05.158Z,17.6
2015-04-02T02:42:23.552Z,17.5
2015-04-02T02:42:42.177Z,17.5
2015-04-02T02:43:00.583Z,17.5
2015-04-02T02:43:19.177Z,17.5
2015-04-02T02:43:37.976Z,17.5
2015-04-02T02:43:56.444Z,17.6
2015-04-02T02:44:14.851Z,17.7
2015-04-02T02:44:33.321Z,17.7
2015-04-02T02:44:52.071Z,17.7
2015-04-02T02:45:10.462Z,17.8
2015-04-02T02:45:29.009Z,17.8
2015-04-02T02:45:47.401Z,17.8
2015-04-02T02:46:05.214Z,17.8
2015-04-02T02:46:23.605Z,17.8
2015-04-02T02:46:42.109Z,17.9
2015-04-02T02:47:00.499Z,17.9
2015-04-02T02:47:18.874Z,17.9
2015-04-02T02:47:37.312Z,17.8
2015-04-02T02:47:55.720Z,17.8
2015-04-02T02:48:14.157Z,17.8
2015-04-02T02:48:32.611Z,17.8
2015-04-02T02:48:50.988Z,17.8
2015-04-02T02:49:09.394Z,17.8
2015-04-02T02:49:28.003Z,17.9
2015-04-02T02:49:46.425Z,17.9
2015-04-02T02:50:04.958Z,18
2015-04-02T02:50:23.365Z,17.9
2015-04-02T02:50:41.818Z,17.9
2015-04-02T02:51:00.211Z,18
2015-04-02T02:51:18.633Z,18
2015-04-02T02:51:37.164Z,18
2015-04-02T02:51:55.633Z,17.7
2015-04-02T02:52:14.089Z,17.8
2015-04-02T02:52:32.496Z,17.7
2015-04-02T02:52:51.074Z,17.8
2015-04-02T02:53:09.669Z,17.7
2015-04-02T02:53:28.060Z,17.7
2015-04-02T02:53:46.669Z,17.8
2015-04-02T02:54:05.138Z,17.8
2015-04-02T02:54:23.531Z,17.7
2015-04-02T02:54:42.250Z,17.6
2015-04-02T02:55:00.640Z,17.7
2015-04-02T02:55:19.112Z,17.6
2015-04-02T02:55:37.565Z,17.4
2015-04-02T02:55:56.346Z,17.4
2015-04-02T02:56:14.784Z,17.6
2015-04-02T02:56:33.333Z,17.4
2015-04-02T02:56:51.926Z,17.4
2015-04-02T02:57:10.598Z,17.4
2015-04-02T02:57:29.008Z,17.3
2015-04-02T02:57:47.601Z,17.4
2015-04-02T02:58:05.992Z,17.4
2015-04-02T02:58:24.383Z,17.3
2015-04-02T02:58:42.838Z,17.4
2015-04-02T02:59:01.556Z,17.5
2015-04-02T02:59:20.041Z,17.6
2015-04-02T02:59:38.622Z,17.6
2015-04-02T02:59:57.184Z,17.6
2015-04-02T03:00:15.747Z,17.4
2015-04-02T03:00:34.184Z,17.4
2015-04-02T03:00:52.686Z,17.4
2015-04-02T03:01:11.077Z,17.4
2015-04-02T03:01:29.468Z,17.6
2015-04-02T03:01:47.861Z,17.6
2015-04-02T03:02:06.393Z,17.5
2015-04-02T03:02:25.002Z,17.6
2015-04-02T03:02:43.424Z,17.6
2015-04-02T03:03:02.129Z,17.4
2015-04-02T03:03:20.613Z,17.4
2015-04-02T03:03:38.988Z,17.4
2015-04-02T03:03:57.429Z,17.2
2015-04-02T03:04:15.819Z,17.2
2015-04-02T03:04:34.366Z,17.3
2015-04-02T03:04:52.819Z,17.3
2015-04-02T03:05:11.228Z,17.3
2015-04-02T03:05:29.759Z,17.4
2015-04-02T03:05:48.275Z,17.4
2015-04-02T03:06:06.668Z,17.5
2015-04-02T03:06:25.059Z,17.6
2015-04-02T03:06:43.856Z,17.6
2015-04-02T03:07:02.278Z,17.6
2015-04-02T03:07:20.936Z,17.4
2015-04-02T03:07:39.561Z,17.4
2015-04-02T03:07:57.936Z,17.5
2015-04-02T03:08:16.501Z,17.6
2015-04-02T03:08:34.970Z,17.6
2015-04-02T03:08:53.361Z,17.5
2015-04-02T03:09:11.970Z,17.6
2015-04-02T03:09:30.707Z,17.6
2015-04-02T03:09:49.145Z,17.5
2015-04-02T03:10:07.911Z,17.5
2015-04-02T03:10:26.584Z,17.3
2015-04-02T03:10:45.006Z,17.2
2015-04-02T03:11:03.397Z,17.1
2015-04-02T03:11:21.866Z,17.3
2015-04-02T03:11:40.352Z,17.4
2015-04-02T03:11:58.977Z,17.3
2015-04-02T03:12:17.368Z,17.3
2015-04-02T03:12:35.871Z,17.1
2015-04-02T03:12:54.293Z,17.1
2015-04-02T03:13:12.996Z,17.3
2015-04-02T03:13:31.527Z,17.3
2015-04-02T03:13:50.029Z,17.1
2015-04-02T03:14:08.404Z,16.9
2015-04-02T03:14:26.920Z,16.9
2015-04-02T03:14:45.344Z,17
2015-04-02T03:15:03.766Z,17.1
2015-04-02T03:15:22.501Z,17
2015-04-02T03:15:41.048Z,16.9
2015-04-02T03:15:59.425Z,16.7
2015-04-02T03:16:18.096Z,16.9
2015-04-02T03:16:36.518Z,17
2015-04-02T03:16:55.271Z,17.1
2015-04-02T03:17:13.740Z,17
2015-04-02T03:17:32.303Z,17
2015-04-02T03:17:50.724Z,17
2015-04-02T03:18:09.399Z,17
2015-04-02T03:18:28.009Z,17
2015-04-02T03:18:46.743Z,16.9
2015-04-02T03:19:05.136Z,17
2015-04-02T03:19:23.573Z,17
2015-04-02T03:19:42.089Z,17
2015-04-02T03:20:00.823Z,17.1
2015-04-02T03:20:19.216Z,17.2
2015-04-02T03:20:37.935Z,17.2
2015-04-02T03:20:56.591Z,17.3
2015-04-02T03:21:14.969Z,17.3
2015-04-02T03:21:33.594Z,17.1
2015-04-02T03:21:52.094Z,17
2015-04-02T03:22:10.531Z,17
2015-04-02T03:22:29.049Z,17.2
2015-04-02T03:22:47.643Z,17.1
2015-04-02T03:23:06.065Z,16.9
2015-04-02T03:23:24.568Z,16.8
2015-04-02T03:23:43.083Z,16.7
2015-04-02T03:24:01.536Z,16.8
2015-04-02T03:24:20.099Z,16.9
2015-04-02T03:24:38.773Z,16.8
2015-04-02T03:24:57.179Z,16.8
2015-04-02T03:25:15.632Z,16.9
2015-04-02T03:25:34.026Z,16.9
2015-04-02T03:25:52.416Z,16.9
2015-04-02T03:26:10.948Z,16.8
2015-04-02T03:26:29.463Z,16.9
2015-04-02T03:26:48.106Z,17
2015-04-02T03:27:06.778Z,17
2015-04-02T03:27:25.215Z,17.1
2015-04-02T03:27:43.624Z,17
2015-04-02T03:28:02.171Z,16.8
2015-04-02T03:28:20.703Z,16.8
2015-04-02T03:28:39.093Z,17
2015-04-02T03:28:57.673Z,17
2015-04-02T03:29:16.314Z,17.1
2015-04-02T03:29:34.798Z,17.2
2015-04-02T03:29:53.426Z,17.2
2015-04-02T03:30:11.926Z,17.2
2015-04-02T03:30:30.395Z,17.1
2015-04-02T03:30:48.833Z,17.2
2015-04-02T03:31:07.694Z,17.2
2015-04-02T03:31:26.069Z,17.3
2015-04-02T03:31:44.710Z,17.3
2015-04-02T03:32:03.243Z,17.4
2015-04-02T03:32:21.727Z,17.4
2015-04-02T03:32:40.133Z,17.4
2015-04-02T03:32:58.618Z,17.3
2015-04-02T03:33:17.231Z,17.3
2015-04-02T03:33:35.966Z,17.2
2015-04-02T03:33:54.356Z,17.1
2015-04-02T03:34:12.936Z,17.2
2015-04-02T03:34:31.327Z,17.3
2015-04-02T03:34:49.780Z,17.4
2015-04-02T03:35:08.311Z,17.4
2015-04-02T03:35:26.814Z,17.3
2015-04-02T03:35:45.299Z,17.3
2015-04-02T03:36:03.721Z,17.2
2015-04-02T03:36:22.316Z,17.2
2015-04-02T03:36:40.738Z,17
2015-04-02T03:36:59.332Z,17
2015-04-02T03:37:18.019Z,17.1
2015-04-02T03:37:36.443Z,17.1
2015-04-02T03:37:55.021Z,17.2
2015-04-02T03:38:13.678Z,17.2
2015-04-02T03:38:32.103Z,17.1
2015-04-02T03:38:50.603Z,17.1
2015-04-02T03:39:09.024Z,17.1
2015-04-02T03:39:27.571Z,17
2015-04-02T03:39:46.058Z,17.1
2015-04-02T03:40:04.651Z,17.2
2015-04-02T03:40:23.683Z,17.3
2015-04-02T03:40:42.233Z,17.4
2015-04-02T03:41:00.920Z,17.4
2015-04-02T03:41:19.342Z,17.3
2015-04-02T03:41:38.186Z,17.3
2015-04-02T03:41:56.750Z,17.4
2015-04-02T03:42:15.344Z,17.4
2015-04-02T03:42:33.735Z,17.4
2015-04-02T03:42:52.456Z,17.5
2015-04-02T03:43:10.941Z,17.3
2015-04-02T03:43:29.691Z,17.3
2015-04-02T03:43:48.284Z,17.4
2015-04-02T03:44:06.865Z,17.5
2015-04-02T03:44:25.490Z,17.3
2015-04-02T03:44:43.990Z,17.4
2015-04-02T03:45:02.680Z,17.5
2015-04-02T03:45:21.071Z,17.5
2015-04-02T03:45:39.633Z,17.4
2015-04-02T03:45:58.383Z,17.2
2015-04-02T03:46:17.088Z,17.2
2015-04-02T03:46:35.588Z,17.3
2015-04-02T03:46:54.276Z,17.4
2015-04-02T03:47:12.840Z,17.2
2015-04-02T03:47:31.231Z,17.2
2015-04-02T03:47:49.840Z,17.3
2015-04-02T03:48:08.372Z,17.3
2015-04-02T03:48:26.750Z,17.4
2015-04-02T03:48:45.203Z,17.5
2015-04-02T03:49:03.640Z,17.5
2015-04-02T03:49:22.095Z,17.4
2015-04-02T03:49:40.830Z,17.2
2015-04-02T03:49:59.205Z,17.4
2015-04-02T03:50:17.611Z,17.5
2015-04-02T03:50:36.208Z,17.5
2015-04-02T03:50:54.661Z,17.4
2015-04-02T03:51:13.223Z,17.3
2015-04-02T03:51:31.883Z,17.3
2015-04-02T03:51:50.633Z,17.4
2015-04-02T03:52:10.039Z,17.4
2015-04-02T03:52:28.508Z,17.3
2015-04-02T03:52:47.010Z,17.4
2015-04-02T03:53:05.400Z,17.5
2015-04-02T03:53:23.869Z,17.5
2015-04-02T03:53:42.263Z,17.5
2015-04-02T03:54:00.841Z,17.5
2015-04-02T03:54:19.497Z,17.6
2015-04-02T03:54:38.169Z,17.6
2015-04-02T03:54:56.624Z,17.5
2015-04-02T03:55:15.015Z,17.6
2015-04-02T03:55:33.577Z,17.6
2015-04-02T03:55:52.268Z,17.6
2015-04-02T03:56:10.689Z,17.5
2015-04-02T03:56:29.299Z,17.6
2015-04-02T03:56:47.689Z,17.4
2015-04-02T03:57:06.082Z,17.2
2015-04-02T03:57:24.613Z,17.3
2015-04-02T03:57:43.004Z,17.3
2015-04-02T03:58:01.773Z,17.4
2015-04-02T03:58:20.163Z,17.5
2015-04-02T03:58:38.663Z,17.4
2015-04-02T03:58:57.491Z,17.2
2015-04-02T03:59:15.946Z,17.2
2015-04-02T03:59:34.540Z,17.2
2015-04-02T03:59:53.134Z,17.3
2015-04-02T04:00:11.761Z,17.4
2015-04-02T04:00:30.167Z,17.4
2015-04-02T04:00:48.761Z,17.4
2015-04-02T04:01:07.198Z,17.4
2015-04-02T04:01:25.623Z,17.4
2015-04-02T04:01:44.061Z,17.5
2015-04-02T04:02:02.576Z,17.4
2015-04-02T04:02:20.953Z,17.4
2015-04-02T04:02:39.344Z,17.3
2015-04-02T04:02:57.860Z,17.4
2015-04-02T04:03:16.250Z,17.4
2015-04-02T04:03:34.644Z,17.5
2015-04-02T04:03:53.285Z,17.5
2015-04-02T04:04:11.738Z,17.6
2015-04-02T04:04:30.506Z,17.6
2015-04-02T04:04:49.006Z,17.6
2015-04-02T04:05:07.397Z,17.7
2015-04-02T04:05:25.834Z,17.7
2015-04-02T04:05:44.414Z,17.7
2015-04-02T04:06:02.851Z,17.7
2015-04-02T04:06:21.445Z,17.7
2015-04-02T04:06:39.932Z,17.6
2015-04-02T04:06:58.307Z,17.3
2015-04-02T04:07:16.729Z,17.3